Map

Track Data

SID SEASON NUMBER BASIN SUBBASIN NAME ISO_TIME NATURE LAT LON WMO_WIND WMO_PRES WMO_AGENCY TRACK_TYPE DIST2LAND LANDFALL IFLAG USA_AGENCY USA_ATCF_ID USA_LAT USA_LON USA_RECORD USA_STATUS USA_WIND USA_PRES USA_SSHS USA_R34_NE USA_R34_SE USA_R34_SW USA_R34_NW USA_R50_NE USA_R50_SE USA_R50_SW USA_R50_NW USA_R64_NE USA_R64_SE USA_R64_SW USA_R64_NW USA_POCI USA_ROCI USA_RMW USA_EYE TOKYO_LAT TOKYO_LON TOKYO_GRADE TOKYO_WIND TOKYO_PRES TOKYO_R50_DIR TOKYO_R50_LONG TOKYO_R50_SHORT TOKYO_R30_DIR TOKYO_R30_LONG TOKYO_R30_SHORT TOKYO_LAND CMA_LAT CMA_LON CMA_CAT CMA_WIND CMA_PRES HKO_LAT HKO_LON HKO_CAT HKO_WIND HKO_PRES NEWDELHI_LAT NEWDELHI_LON NEWDELHI_GRADE NEWDELHI_WIND NEWDELHI_PRES NEWDELHI_CI NEWDELHI_DP NEWDELHI_POCI REUNION_LAT REUNION_LON REUNION_TYPE REUNION_WIND REUNION_PRES REUNION_TNUM REUNION_CI REUNION_RMW REUNION_R34_NE REUNION_R34_SE REUNION_R34_SW REUNION_R34_NW REUNION_R50_NE REUNION_R50_SE REUNION_R50_SW REUNION_R50_NW REUNION_R64_NE REUNION_R64_SE REUNION_R64_SW REUNION_R64_NW BOM_LAT BOM_LON BOM_TYPE BOM_WIND BOM_PRES BOM_TNUM BOM_CI BOM_RMW BOM_R34_NE BOM_R34_SE BOM_R34_SW BOM_R34_NW BOM_R50_NE BOM_R50_SE BOM_R50_SW BOM_R50_NW BOM_R64_NE BOM_R64_SE BOM_R64_SW BOM_R64_NW BOM_ROCI BOM_POCI BOM_EYE BOM_POS_METHOD BOM_PRES_METHOD NADI_LAT NADI_LON NADI_CAT NADI_WIND NADI_PRES WELLINGTON_LAT WELLINGTON_LON WELLINGTON_WIND WELLINGTON_PRES DS824_LAT DS824_LON DS824_STAGE DS824_WIND DS824_PRES TD9636_LAT TD9636_LON TD9636_STAGE TD9636_WIND TD9636_PRES TD9635_LAT TD9635_LON TD9635_WIND TD9635_PRES TD9635_ROCI NEUMANN_LAT NEUMANN_LON NEUMANN_CLASS NEUMANN_WIND NEUMANN_PRES MLC_LAT MLC_LON MLC_CLASS MLC_WIND MLC_PRES USA_GUST BOM_GUST BOM_GUST_PER REUNION_GUST REUNION_GUST_PER USA_SEAHGT USA_SEARAD_NE USA_SEARAD_SE USA_SEARAD_SW USA_SEARAD_NW STORM_SPEED STORM_DIR
1942047S09202 1942 8 SP MM NOT_NAMED 1942-02-16 00:00:00 NR -9.40000 -157.900 main 1631 1575 __________O___ -1 -9.40000 -157.900 2 10 262
1942047S09202 1942 8 SP MM NOT_NAMED 1942-02-16 03:00:00 NR -9.47237 -158.412 main 1575 1523 __________P___ -1 -9.47237 -158.412 2 10 262
1942047S09202 1942 8 SP MM NOT_NAMED 1942-02-16 06:00:00 NR -9.54551 -158.930 main 1523 1468 __________P___ -1 -9.54551 -158.930 2 10 262
1942047S09202 1942 8 SP MM NOT_NAMED 1942-02-16 09:00:00 NR -9.62090 -159.458 main 1457 1402 __________P___ -1 -9.62090 -159.458 2 11 262
1942047S09202 1942 8 SP MM NOT_NAMED 1942-02-16 12:00:00 NR -9.70000 -160.000 main 1402 1347 __________O___ -1 -9.70000 -160.000 2 11 262
1942047S09202 1942 8 SP MM NOT_NAMED 1942-02-16 15:00:00 NR -9.78295 -160.561 main 1336 1281 __________P___ -1 -9.78295 -160.561 2 11 262
1942047S09202 1942 8 SP MM NOT_NAMED 1942-02-16 18:00:00 NR -9.86476 -161.135 main 1281 1219 __________P___ -1 -9.86476 -161.135 2 12 262
1942047S09202 1942 8 SP MM NOT_NAMED 1942-02-16 21:00:00 NR -9.93918 -161.717 main 1219 1154 __________P___ -1 -9.93918 -161.717 2 12 263
1942047S09202 1942 8 SP MM NOT_NAMED 1942-02-17 00:00:00 NR -10.0000 -162.300 main 1154 1094 __________O___ -1 -10.0000 -162.300 2 12 266
1942047S09202 1942 8 SP MM NOT_NAMED 1942-02-17 03:00:00 NR -10.0231 -162.900 main 1094 1033 __________P___ -1 -10.0231 -162.900 2 12 268
1942047S09202 1942 8 SP MM NOT_NAMED 1942-02-17 06:00:00 NR -10.0350 -163.495 main 1033 979 __________P___ -1 -10.0350 -163.495 2 12 268
1942047S09202 1942 8 SP MM NOT_NAMED 1942-02-17 09:00:00 NR -10.0544 -164.068 main 969 920 __________P___ -1 -10.0544 -164.068 2 11 267
1942047S09202 1942 8 SP MM NOT_NAMED 1942-02-17 12:00:00 NR -10.1000 -164.600 main 920 866 __________O___ -1 -10.1000 -164.600 2 10 262
1942047S09202 1942 8 SP MM NOT_NAMED 1942-02-17 15:00:00 NR -10.2042 -165.117 main 866 812 __________P___ -1 -10.2042 -165.117 2 10 256
1942047S09202 1942 8 SP MM NOT_NAMED 1942-02-17 18:00:00 NR -10.3349 -165.585 main 812 763 __________P___ -1 -10.3349 -165.585 2 9 253
1942047S09202 1942 8 SP MM NOT_NAMED 1942-02-17 21:00:00 NR -10.4731 -165.985 main 763 729 __________P___ -1 -10.4731 -165.985 2 8 249
1942047S09202 1942 8 SP MM NOT_NAMED 1942-02-18 00:00:00 NR -10.6000 -166.300 main 729 705 __________O___ -1 -10.6000 -166.300 2 6 248
1942047S09202 1942 8 SP MM NOT_NAMED 1942-02-18 03:00:00 NR -10.6850 -166.528 main 705 680 __________P___ -1 -10.6850 -166.528 2 4 247
1942047S09202 1942 8 SP MM NOT_NAMED 1942-02-18 06:00:00 NR -10.7571 -166.670 main 680 680 __________P___ -1 -10.7571 -166.670 2 3 238
1942047S09202 1942 8 SP MM NOT_NAMED 1942-02-18 09:00:00 NR -10.8257 -166.753 main 670 665 __________P___ -1 -10.8257 -166.753 2 2 221
1942047S09202 1942 8 SP MM NOT_NAMED 1942-02-18 12:00:00 NR -10.9000 -166.800 main 665 650 __________O___ -1 -10.9000 -166.800 2 2 213
1942047S09202 1942 8 SP MM NOT_NAMED 1942-02-18 15:00:00 NR -11.0009 -166.870 main 650 645 __________P___ -1 -11.0009 -166.870 2 2 206
1942047S09202 1942 8 SP MM NOT_NAMED 1942-02-18 18:00:00 NR -11.1075 -166.910 main 645 640 __________P___ -1 -11.1075 -166.910 2 2 195
1942047S09202 1942 8 SP MM NOT_NAMED 1942-02-18 21:00:00 NR -11.2103 -166.920 main 640 635 __________P___ -1 -11.2103 -166.920 2 2 173
1942047S09202 1942 8 SP MM NOT_NAMED 1942-02-19 00:00:00 NR -11.3000 -166.900 main 635 630 __________O___ -1 -11.3000 -166.900 2 2 157
1942047S09202 1942 8 SP MM NOT_NAMED 1942-02-19 03:00:00 NR -11.3603 -166.854 main 630 630 __________P___ -1 -11.3603 -166.854 2 2 133
1942047S09202 1942 8 SP MM NOT_NAMED 1942-02-19 06:00:00 NR -11.4075 -166.780 main 640 640 __________P___ -1 -11.4075 -166.780 2 2 120
1942047S09202 1942 8 SP MM NOT_NAMED 1942-02-19 09:00:00 NR -11.4509 -166.691 main 645 645 __________P___ -1 -11.4509 -166.691 2 2 118
1942047S09202 1942 8 SP MM NOT_NAMED 1942-02-19 12:00:00 NR -11.5000 -166.600 main 656 651 __________O___ -1 -11.5000 -166.600 2 2 127
1942047S09202 1942 8 SP MM NOT_NAMED 1942-02-19 15:00:00 NR -11.5678 -166.537 main 661 661 __________P___ -1 -11.5678 -166.537 2 2 139
1942047S09202 1942 8 SP MM NOT_NAMED 1942-02-19 18:00:00 NR -11.6424 -166.472 main 661 657 __________P___ -1 -11.6424 -166.472 2 2 138
1942047S09202 1942 8 SP MM NOT_NAMED 1942-02-19 21:00:00 NR -11.7209 -166.397 main 668 664 __________P___ -1 -11.7209 -166.397 2 2 133
1942047S09202 1942 8 SP MM NOT_NAMED 1942-02-20 00:00:00 NR -11.8000 -166.300 main 674 674 __________O___ -1 -11.8000 -166.300 2 3 125
1942047S09202 1942 8 SP MM NOT_NAMED 1942-02-20 03:00:00 NR -11.8750 -166.176 main 681 681 __________P___ -1 -11.8750 -166.176 2 3 120
1942047S09202 1942 8 SP MM NOT_NAMED 1942-02-20 06:00:00 NR -11.9500 -166.030 main 698 698 __________P___ -1 -11.9500 -166.030 2 3 117
1942047S09202 1942 8 SP MM NOT_NAMED 1942-02-20 09:00:00 NR -12.0250 -165.869 main 709 709 __________P___ -1 -12.0250 -165.869 2 4 115
1942047S09202 1942 8 SP MM NOT_NAMED 1942-02-20 12:00:00 NR -12.1000 -165.700 main 727 727 __________O___ -1 -12.1000 -165.700 2 4 116
1942047S09202 1942 8 SP MM NOT_NAMED 1942-02-20 15:00:00 NR -12.1831 -165.532 main 745 745 __________P___ -1 -12.1831 -165.532 2 4 116
1942047S09202 1942 8 SP MM NOT_NAMED 1942-02-20 18:00:00 NR -12.2650 -165.358 main 753 753 __________P___ -1 -12.2650 -165.358 2 4 114
1942047S09202 1942 8 SP MM NOT_NAMED 1942-02-20 21:00:00 NR -12.3394 -165.179 main 774 774 __________P___ -1 -12.3394 -165.179 2 4 111
1942047S09202 1942 8 SP MM NOT_NAMED 1942-02-21 00:00:00 NR -12.4000 -165.000 main 793 793 __________O___ -1 -12.4000 -165.000 2 4 105
1942047S09202 1942 8 SP MM NOT_NAMED 1942-02-21 03:00:00 NR -12.4312 -164.825 main 815 815 __________P___ -1 -12.4312 -164.825 2 3 98
1942047S09202 1942 8 SP MM NOT_NAMED 1942-02-21 06:00:00 NR -12.4500 -164.650 main 836 834 __________P___ -1 -12.4500 -164.650 2 3 96
1942047S09202 1942 8 SP MM NOT_NAMED 1942-02-21 09:00:00 NR -12.4687 -164.475 main 845 845 __________P___ -1 -12.4687 -164.475 2 3 98
1942047S09202 1942 8 SP MM NOT_NAMED 1942-02-21 12:00:00 NR -12.5000 -164.300 main 866 866 __________O___ -1 -12.5000 -164.300 2 3 102
1942047S09202 1942 8 SP MM NOT_NAMED 1942-02-21 15:00:00 NR -12.5361 -164.145 main 887 886 __________P___ -1 -12.5361 -164.145 2 3 106
1942047S09202 1942 8 SP MM NOT_NAMED 1942-02-21 18:00:00 NR -12.5898 -163.987 main 896 896 __________P___ -1 -12.5898 -163.987 2 4 113
1942047S09202 1942 8 SP MM NOT_NAMED 1942-02-21 21:00:00 NR -12.6736 -163.811 main 916 916 __________P___ -1 -12.6736 -163.811 2 4 119
1942047S09202 1942 8 SP MM NOT_NAMED 1942-02-22 00:00:00 NR -12.8000 -163.600 main 936 936 __________O___ -1 -12.8000 -163.600 2 6 121
1942047S09202 1942 8 SP MM NOT_NAMED 1942-02-22 03:00:00 NR -12.9700 -163.300 main 966 966 __________P___ -1 -12.9700 -163.300 2 7 122
1942047S09202 1942 8 SP MM NOT_NAMED 1942-02-22 06:00:00 NR -13.1830 -162.971 main 997 997 __________P___ -1 -13.1830 -162.971 2 8 126
1942047S09202 1942 8 SP MM NOT_NAMED 1942-02-22 09:00:00 NR -13.4294 -162.656 main 1028 1028 __________P___ -1 -13.4294 -162.656 2 8 133
1942047S09202 1942 8 SP MM NOT_NAMED 1942-02-22 12:00:00 NR -13.7000 -162.400 main 1059 1058 __________O___ -1 -13.7000 -162.400 2 7 141
1942047S09202 1942 8 SP MM NOT_NAMED 1942-02-22 15:00:00 NR -13.9741 -162.208 main 1080 1080 __________P___ -1 -13.9741 -162.208 2 7 152
1942047S09202 1942 8 SP MM NOT_NAMED 1942-02-22 18:00:00 NR -14.2696 -162.085 main 1091 1091 __________P___ -1 -14.2696 -162.085 2 6 165
1942047S09202 1942 8 SP MM NOT_NAMED 1942-02-22 21:00:00 NR -14.5803 -162.045 main 1103 1093 __________P___ -1 -14.5803 -162.045 2 6 181
1942047S09202 1942 8 SP MM NOT_NAMED 1942-02-23 00:00:00 NR -14.9000 -162.100 main 1095 1085 __________O___ -1 -14.9000 -162.100 2 7 197
1942047S09202 1942 8 SP MM NOT_NAMED 1942-02-23 03:00:00 NR -15.2260 -162.252 main 1077 1061 __________P___ -1 -15.2260 -162.252 2 8 210
1942047S09202 1942 8 SP MM NOT_NAMED 1942-02-23 06:00:00 NR -15.5577 -162.494 main 1062 1035 __________P___ -1 -15.5577 -162.494 2 8 218
1942047S09202 1942 8 SP MM NOT_NAMED 1942-02-23 09:00:00 NR -15.8854 -162.790 main 1037 1011 __________P___ -1 -15.8854 -162.790 2 9 222
1942047S09202 1942 8 SP MM NOT_NAMED 1942-02-23 12:00:00 NR -16.2000 -163.100 main 1013 999 __________O___ -1 -16.2000 -163.100 2 8 222
1942047S09202 1942 8 SP MM NOT_NAMED 1942-02-23 15:00:00 NR -16.4932 -163.352 main 991 978 __________P___ -1 -16.4932 -163.352 2 8 221
1942047S09202 1942 8 SP MM NOT_NAMED 1942-02-23 18:00:00 NR -16.7721 -163.613 main 981 959 __________P___ -1 -16.7721 -163.613 2 8 223
1942047S09202 1942 8 SP MM NOT_NAMED 1942-02-23 21:00:00 NR -17.0400 -163.893 main 959 942 __________P___ -1 -17.0400 -163.893 2 8 227
1942047S09202 1942 8 SP MM NOT_NAMED 1942-02-24 00:00:00 NR -17.3000 -164.200 main 942 922 __________O___ -1 -17.3000 -164.200 2 8 232
1942047S09202 1942 8 SP MM NOT_NAMED 1942-02-24 03:00:00 NR -17.5453 -164.571 main 913 894 __________P___ -1 -17.5453 -164.571 2 9 236
1942047S09202 1942 8 SP MM NOT_NAMED 1942-02-24 06:00:00 NR -17.7855 -164.965 main 891 874 __________P___ -1 -17.7855 -164.965 2 9 237
1942047S09202 1942 8 SP MM NOT_NAMED 1942-02-24 09:00:00 NR -18.0328 -165.352 main 865 857 __________P___ -1 -18.0328 -165.352 2 9 234
1942047S09202 1942 8 SP MM NOT_NAMED 1942-02-24 12:00:00 NR -18.3000 -165.700 main 857 845 __________O___ -1 -18.3000 -165.700 2 8 228
1942047S09202 1942 8 SP MM NOT_NAMED 1942-02-24 15:00:00 NR -18.5911 -166.013 main 852 843 __________P___ -1 -18.5911 -166.013 2 8 222
1942047S09202 1942 8 SP MM NOT_NAMED 1942-02-24 18:00:00 NR -18.9048 -166.277 main 849 849 __________P___ -1 -18.9048 -166.277 2 8 214
1942047S09202 1942 8 SP MM NOT_NAMED 1942-02-24 21:00:00 NR -19.2412 -166.478 main 856 856 __________P___ -1 -19.2412 -166.478 2 8 204
1942047S09202 1942 8 SP MM NOT_NAMED 1942-02-25 00:00:00 NR -19.6000 -166.600 main 881 881 __________O___ -1 -19.6000 -166.600 2 8 191
1942047S09202 1942 8 SP MM NOT_NAMED 1942-02-25 03:00:00 NR -19.9823 -166.638 main 914 914 __________P___ -1 -19.9823 -166.638 2 8 0
1942047S09202 1942 8 SP MM NOT_NAMED 1942-02-25 06:00:00 NR -20.3848 -166.598 main 948 948 __________P___ -1 -20.3848 -166.598 2 8 172
1942047S09202 1942 8 SP MM NOT_NAMED 1942-02-25 09:00:00 NR -20.7949 -166.510 main 989 989 __________P___ -1 -20.7949 -166.510 2 8 167
1942047S09202 1942 8 SP MM NOT_NAMED 1942-02-25 12:00:00 NR -21.2000 -166.400 main 1031 1031 __________O___ -1 -21.2000 -166.400 2 8 168
1942047S09202 1942 8 SP MM NOT_NAMED 1942-02-25 15:00:00 NR -21.5780 -166.330 main 1073 1073 __________P___ -1 -21.5780 -166.330 2 8 169
1942047S09202 1942 8 SP MM NOT_NAMED 1942-02-25 18:00:00 NR -21.9499 -166.244 main 1106 1106 __________P___ -1 -21.9499 -166.244 2 8 166
1942047S09202 1942 8 SP MM NOT_NAMED 1942-02-25 21:00:00 NR -22.3218 -166.136 main 1148 1148 __________P___ -1 -22.3218 -166.136 2 8 163
1942047S09202 1942 8 SP MM NOT_NAMED 1942-02-26 00:00:00 NR -22.7000 -166.000 main 1191 1191 __________O___ -1 -22.7000 -166.000 2 8 159
1942047S09202 1942 8 SP MM NOT_NAMED 1942-02-26 03:00:00 NR -23.0929 -165.825 main 1239 1239 __________P___ -1 -23.0929 -165.825 2 9 156
1942047S09202 1942 8 SP MM NOT_NAMED 1942-02-26 06:00:00 NR -23.4926 -165.623 main 1288 1288 __________P___ -1 -23.4926 -165.623 2 9 155
1942047S09202 1942 8 SP MM NOT_NAMED 1942-02-26 09:00:00 NR -23.8960 -165.409 main 1336 1336 __________P___ -1 -23.8960 -165.409 2 9 155
1942047S09202 1942 8 SP MM NOT_NAMED 1942-02-26 12:00:00 NR -24.3000 -165.200 main 1385 1385 __________O___ -1 -24.3000 -165.200 2 9 156
1942047S09202 1942 8 SP MM NOT_NAMED 1942-02-26 15:00:00 NR -24.7021 -165.008 main 1433 1433 __________P___ -1 -24.7021 -165.008 2 9 157
1942047S09202 1942 8 SP MM NOT_NAMED 1942-02-26 18:00:00 NR -25.1025 -164.830 main 1482 1482 __________P___ -1 -25.1025 -164.830 2 9 159
1942047S09202 1942 8 SP MM NOT_NAMED 1942-02-26 21:00:00 NR -25.5016 -164.663 main 1525 1525 __________P___ -1 -25.5016 -164.663 2 9 160
1942047S09202 1942 8 SP MM NOT_NAMED 1942-02-27 00:00:00 NR -25.9000 -164.500 main 1573 __________O___ -1 -25.9000 -164.500 2 9 160

Digital Typhoon Data and Search

About IBTrACS Database

This database is a web-friendly format of International Best Track Archive for Climate Stewardship (IBTrACS), a global best track data archive curated by NOAA dating back to 1842.

Updated: 2021-10-08